createdAt,value
2022-08-28T00:01:29.522Z,17.10
2022-08-28T00:03:51.341Z,18.83
2022-08-28T00:06:12.714Z,18.87
2022-08-28T00:08:36.112Z,18.83
2022-08-28T00:10:57.540Z,18.43
2022-08-28T00:13:21.302Z,18.23
2022-08-28T00:15:42.671Z,18.63
2022-08-28T00:18:05.483Z,19.00
2022-08-28T00:20:28.541Z,18.80
2022-08-28T00:22:50.249Z,18.80
2022-08-28T00:25:14.669Z,19.90
2022-08-28T00:27:53.564Z,19.97
2022-08-28T00:30:17.025Z,20.43
2022-08-28T00:32:38.615Z,20.93
2022-08-28T00:35:01.704Z,19.70
2022-08-28T00:37:24.551Z,20.57
2022-08-28T00:39:47.876Z,21.63
2022-08-28T00:42:11.934Z,21.70
2022-08-28T00:44:33.556Z,20.63
2022-08-28T00:46:58.164Z,19.60
2022-08-28T00:49:22.618Z,20.37
2022-08-28T00:52:02.641Z,20.03
2022-08-28T00:54:24.962Z,19.50
2022-08-28T00:56:47.584Z,19.77
2022-08-28T00:59:15.566Z,20.73
2022-08-28T01:01:38.869Z,22.07
2022-08-28T01:04:02.253Z,22.00
2022-08-28T01:06:23.706Z,22.93
2022-08-28T01:08:50.532Z,24.07
2022-08-28T01:11:13.909Z,24.87
2022-08-28T01:13:37.645Z,23.57
2022-08-28T01:16:01.315Z,27.57
2022-08-28T01:18:23.916Z,26.77
2022-08-28T01:20:50.715Z,30.47
2022-08-28T01:23:23.704Z,30.97
2022-08-28T01:25:46.529Z,30.93
2022-08-28T01:28:10.585Z,29.63
2022-08-28T01:30:32.784Z,31.50
2022-08-28T01:32:55.785Z,30.63
2022-08-28T01:35:19.273Z,32.57
2022-08-28T01:37:41.316Z,32.53
2022-08-28T01:40:03.165Z,32.93
2022-08-28T01:42:26.183Z,29.83
2022-08-28T01:44:47.804Z,29.40
2022-08-28T01:47:09.080Z,28.77
2022-08-28T01:49:30.679Z,29.30
2022-08-28T01:51:52.337Z,29.73
2022-08-28T01:54:16.139Z,31.57
2022-08-28T01:56:37.827Z,30.27
2022-08-28T01:59:01.661Z,31.30
2022-08-28T02:01:23.625Z,32.40
2022-08-28T02:03:45.180Z,32.63
2022-08-28T02:06:07.292Z,31.47
2022-08-28T02:08:28.718Z,29.77
2022-08-28T02:10:50.206Z,33.00
2022-08-28T02:13:12.550Z,31.10
2022-08-28T02:15:36.987Z,32.97
2022-08-28T02:17:58.540Z,30.70
2022-08-28T02:20:20.508Z,33.17
2022-08-28T02:22:41.847Z,31.10
2022-08-28T02:25:04.225Z,32.53
2022-08-28T02:27:25.619Z,33.40
2022-08-28T02:29:47.298Z,30.87
2022-08-28T02:32:10.104Z,33.53
2022-08-28T02:34:31.461Z,34.63
2022-08-28T02:36:52.572Z,34.23
2022-08-28T02:39:14.167Z,37.67
2022-08-28T02:41:35.597Z,34.30
2022-08-28T02:43:57.230Z,35.07
2022-08-28T02:46:18.942Z,35.43
2022-08-28T02:48:42.273Z,35.57
2022-08-28T02:51:06.486Z,34.93
2022-08-28T02:53:28.453Z,34.73
2022-08-28T02:55:50.353Z,33.27
2022-08-28T02:58:11.844Z,35.00
2022-08-28T03:00:33.884Z,32.87
2022-08-28T03:02:55.887Z,34.53
2022-08-28T03:05:21.808Z,32.93
2022-08-28T03:07:43.745Z,34.03
2022-08-28T03:10:07.119Z,34.17
2022-08-28T03:12:28.506Z,31.43
2022-08-28T03:14:49.754Z,33.27
2022-08-28T03:17:11.134Z,32.00
2022-08-28T03:19:34.918Z,31.80
2022-08-28T03:21:59.064Z,30.93
2022-08-28T03:24:20.310Z,32.20
2022-08-28T03:26:41.661Z,31.03
2022-08-28T03:29:03.081Z,30.63
2022-08-28T03:31:25.824Z,31.43
2022-08-28T03:33:47.854Z,30.63
2022-08-28T03:36:10.301Z,31.50
2022-08-28T03:38:33.820Z,31.90
2022-08-28T03:40:55.848Z,32.30
2022-08-28T03:43:20.083Z,31.97
2022-08-28T03:45:42.335Z,30.73
2022-08-28T03:48:04.972Z,33.77
2022-08-28T03:50:26.385Z,31.13
2022-08-28T03:52:50.058Z,33.10
2022-08-28T03:55:14.194Z,32.67
2022-08-28T03:57:36.028Z,31.97
2022-08-28T03:59:57.665Z,32.50
2022-08-28T04:02:20.524Z,32.20
2022-08-28T04:04:42.429Z,32.87
2022-08-28T04:07:03.566Z,34.07
2022-08-28T04:09:24.971Z,33.93
2022-08-28T04:11:47.622Z,34.07
2022-08-28T04:14:09.562Z,33.07
2022-08-28T04:16:31.544Z,33.00
2022-08-28T04:18:52.988Z,30.20
2022-08-28T04:21:16.625Z,28.73
2022-08-28T04:23:39.512Z,29.57
2022-08-28T04:26:01.123Z,27.80
2022-08-28T04:28:24.328Z,28.17
2022-08-28T04:30:45.604Z,26.03
2022-08-28T04:33:07.625Z,25.37
2022-08-28T04:35:29.203Z,25.43
2022-08-28T04:37:50.928Z,24.27
2022-08-28T04:40:16.096Z,26.83
2022-08-28T04:42:38.201Z,23.50
2022-08-28T04:45:01.161Z,24.97
2022-08-28T04:47:23.292Z,25.93
2022-08-28T04:49:44.951Z,25.03
2022-08-28T04:52:06.887Z,25.47
2022-08-28T04:54:28.473Z,27.67
2022-08-28T04:56:50.119Z,25.40
2022-08-28T04:59:11.988Z,24.53
2022-08-28T05:01:35.144Z,26.10
2022-08-28T05:03:59.204Z,27.17
2022-08-28T05:06:21.882Z,26.27
2022-08-28T05:08:43.838Z,26.00
2022-08-28T05:11:13.894Z,27.53
2022-08-28T05:13:54.493Z,23.93
2022-08-28T05:16:16.297Z,25.63
2022-08-28T05:18:39.923Z,25.40
2022-08-28T05:21:02.049Z,22.83
2022-08-28T05:23:25.607Z,22.63
2022-08-28T05:25:48.837Z,23.60
2022-08-28T05:28:11.935Z,22.83
2022-08-28T05:30:33.677Z,23.90
2022-08-28T05:32:56.056Z,21.63
2022-08-28T05:35:19.570Z,22.70
2022-08-28T05:37:41.368Z,22.13
2022-08-28T05:40:04.778Z,22.97
2022-08-28T05:42:30.698Z,23.17
2022-08-28T05:44:54.594Z,22.10
2022-08-28T05:47:16.810Z,22.60
2022-08-28T05:49:43.577Z,20.27
2022-08-28T05:52:06.478Z,19.83
2022-08-28T05:54:29.164Z,19.40
2022-08-28T05:56:51.052Z,20.27
2022-08-28T05:59:13.414Z,19.17
2022-08-28T06:01:37.129Z,20.13
2022-08-28T06:04:01.198Z,19.47
2022-08-28T06:06:24.471Z,19.43
2022-08-28T06:08:58.693Z,18.70
2022-08-28T06:11:21.344Z,17.63
2022-08-28T06:13:46.023Z,16.57
2022-08-28T06:16:10.296Z,18.70
2022-08-28T06:18:32.531Z,17.03
2022-08-28T06:20:55.002Z,17.30
2022-08-28T06:23:21.361Z,16.40
2022-08-28T06:25:49.110Z,16.03
2022-08-28T06:28:10.506Z,16.47
2022-08-28T06:30:32.718Z,15.63
2022-08-28T06:32:54.776Z,17.17
2022-08-28T06:35:16.366Z,17.30
2022-08-28T06:37:37.884Z,15.77
2022-08-28T06:39:59.676Z,15.97
2022-08-28T06:42:22.863Z,16.50
2022-08-28T06:44:43.998Z,16.73
2022-08-28T06:47:05.793Z,15.67
2022-08-28T06:49:27.363Z,15.27
2022-08-28T06:51:48.748Z,15.37
2022-08-28T06:54:10.482Z,15.73
2022-08-28T06:56:32.283Z,14.70
2022-08-28T06:58:56.971Z,14.73
2022-08-28T07:01:22.698Z,13.67
2022-08-28T07:03:45.256Z,15.17
2022-08-28T07:06:08.973Z,14.80
2022-08-28T07:08:30.960Z,14.90
2022-08-28T07:10:54.197Z,15.00
2022-08-28T07:13:15.630Z,14.70
2022-08-28T07:15:41.921Z,14.60
2022-08-28T07:18:03.649Z,16.50
2022-08-28T07:20:25.270Z,14.30
2022-08-28T07:22:46.853Z,16.03
2022-08-28T07:25:12.466Z,14.00
2022-08-28T07:27:34.551Z,14.37
2022-08-28T07:29:56.306Z,13.97
2022-08-28T07:32:19.318Z,14.60
2022-08-28T07:34:42.045Z,13.23
2022-08-28T07:37:04.443Z,15.30
2022-08-28T07:39:26.351Z,14.47
2022-08-28T07:41:48.581Z,15.23
2022-08-28T07:44:29.755Z,14.37
2022-08-28T07:46:54.493Z,13.57
2022-08-28T07:49:17.610Z,14.00
2022-08-28T07:51:38.846Z,13.70
2022-08-28T07:54:00.558Z,14.47
2022-08-28T07:56:22.285Z,14.20
2022-08-28T07:58:43.920Z,13.27
2022-08-28T08:01:05.950Z,12.70
2022-08-28T08:03:27.463Z,12.30
2022-08-28T08:05:55.416Z,11.83
2022-08-28T08:08:16.842Z,12.00
2022-08-28T08:10:38.583Z,11.60
2022-08-28T08:13:00.798Z,10.57
2022-08-28T08:15:22.777Z,11.83
2022-08-28T08:17:45.169Z,11.10
2022-08-28T08:20:08.837Z,11.00
2022-08-28T08:22:32.223Z,11.13
2022-08-28T08:24:55.533Z,13.97
2022-08-28T08:27:17.408Z,11.97
2022-08-28T08:29:39.515Z,12.83
2022-08-28T08:32:06.468Z,13.00
2022-08-28T08:34:28.369Z,12.13
2022-08-28T08:36:50.021Z,13.03
2022-08-28T08:39:13.174Z,12.27
2022-08-28T08:41:39.042Z,12.10
2022-08-28T08:44:05.105Z,11.80
2022-08-28T08:46:33.579Z,10.60
2022-08-28T08:48:56.911Z,10.80
2022-08-28T08:51:23.117Z,10.43
2022-08-28T08:53:50.762Z,10.60
2022-08-28T08:56:16.970Z,10.30
2022-08-28T08:58:43.535Z,10.77
2022-08-28T09:01:16.778Z,9.20
2022-08-28T09:04:22.672Z,10.07
2022-08-28T09:07:03.486Z,10.17
2022-08-28T09:09:49.522Z,9.90
2022-08-28T09:12:23.002Z,8.63
2022-08-28T09:15:11.338Z,9.40
2022-08-28T09:17:44.771Z,8.20
2022-08-28T09:20:32.816Z,7.83
2022-08-28T09:23:16.337Z,7.27
2022-08-28T09:26:12.418Z,8.00
2022-08-28T09:29:01.347Z,7.10
2022-08-28T09:31:50.779Z,7.70
2022-08-28T09:34:43.051Z,7.80
2022-08-28T09:37:26.454Z,8.10
2022-08-28T09:40:17.897Z,7.83
2022-08-28T09:42:57.787Z,8.43
2022-08-28T09:45:22.455Z,7.00
2022-08-28T09:47:48.943Z,7.07
2022-08-28T09:50:27.755Z,7.70
2022-08-28T09:52:49.927Z,7.57
2022-08-28T09:55:16.841Z,7.17
2022-08-28T09:57:38.887Z,7.30
2022-08-28T10:00:01.698Z,7.60
2022-08-28T10:02:34.330Z,7.70
2022-08-28T10:05:02.217Z,6.87
2022-08-28T10:07:33.142Z,7.47
2022-08-28T10:10:01.516Z,7.57
2022-08-28T10:12:35.934Z,7.40
2022-08-28T10:15:04.731Z,7.23
2022-08-28T10:17:48.525Z,8.00
2022-08-28T10:20:16.736Z,7.27
2022-08-28T10:22:46.516Z,8.47
2022-08-28T10:25:17.737Z,7.90
2022-08-28T10:27:49.212Z,8.60
2022-08-28T10:30:14.710Z,8.53
2022-08-28T10:32:48.682Z,8.57
2022-08-28T10:35:14.299Z,7.97
2022-08-28T10:37:44.819Z,8.20
2022-08-28T10:40:11.600Z,8.77
2022-08-28T10:42:36.694Z,9.20
2022-08-28T10:45:04.622Z,8.43
2022-08-28T10:47:26.967Z,8.73
2022-08-28T10:49:52.645Z,8.50
2022-08-28T10:52:20.428Z,7.70
2022-08-28T10:54:44.507Z,7.43
2022-08-28T10:57:11.092Z,7.73
2022-08-28T10:59:34.678Z,7.43
2022-08-28T11:02:07.013Z,7.87
2022-08-28T11:04:29.438Z,7.40
2022-08-28T11:06:54.921Z,7.17
2022-08-28T11:09:27.139Z,7.10
2022-08-28T11:11:49.779Z,7.73
2022-08-28T11:14:12.274Z,6.73
2022-08-28T11:16:38.947Z,6.90
2022-08-28T11:19:22.457Z,7.77
2022-08-28T11:22:11.013Z,6.70
2022-08-28T11:25:04.374Z,6.53
2022-08-28T11:28:08.884Z,7.33
2022-08-28T11:31:09.279Z,6.70
2022-08-28T11:34:00.981Z,6.47
2022-08-28T11:37:00.074Z,6.87
2022-08-28T11:39:44.058Z,6.50
2022-08-28T11:42:50.989Z,6.10
2022-08-28T11:45:54.941Z,6.00
2022-08-28T11:49:07.023Z,6.27
2022-08-28T11:52:02.450Z,6.10
2022-08-28T11:54:53.792Z,6.10
2022-08-28T11:57:46.415Z,6.07
2022-08-28T12:00:35.160Z,6.13
2022-08-28T12:03:32.459Z,6.37
2022-08-28T12:06:16.139Z,6.67
2022-08-28T12:09:39.713Z,6.20
2022-08-28T12:12:42.437Z,6.40
2022-08-28T12:15:40.634Z,6.30
2022-08-28T12:18:38.354Z,6.17
2022-08-28T12:21:26.645Z,6.37
2022-08-28T12:24:21.805Z,6.17
2022-08-28T12:27:07.920Z,5.90
2022-08-28T12:29:54.078Z,5.87
2022-08-28T12:32:41.366Z,6.23
2022-08-28T12:35:44.101Z,6.10
2022-08-28T12:38:10.130Z,6.20
2022-08-28T12:40:56.285Z,6.27
2022-08-28T12:43:46.642Z,5.77
2022-08-28T12:46:19.586Z,5.60
2022-08-28T12:49:02.089Z,5.57
2022-08-28T12:51:27.316Z,5.93
2022-08-28T12:53:52.626Z,5.77
2022-08-28T12:56:30.160Z,5.63
2022-08-28T12:59:12.190Z,5.80
2022-08-28T13:01:55.022Z,5.43
2022-08-28T13:04:46.189Z,5.30
2022-08-28T13:07:32.645Z,5.77
2022-08-28T13:10:19.527Z,5.37
2022-08-28T13:13:15.295Z,5.83
2022-08-28T13:16:06.797Z,5.20
2022-08-28T13:19:13.580Z,5.40
2022-08-28T13:21:55.492Z,5.53
2022-08-28T13:25:02.310Z,4.80
2022-08-28T13:27:45.567Z,5.03
2022-08-28T13:30:30.912Z,5.37
2022-08-28T13:33:20.403Z,5.60
2022-08-28T13:36:19.879Z,4.63
2022-08-28T13:39:02.887Z,4.60
2022-08-28T13:41:45.503Z,4.90
2022-08-28T13:44:21.484Z,5.10
2022-08-28T13:46:45.062Z,4.77
2022-08-28T13:49:28.951Z,5.27
2022-08-28T13:52:11.742Z,5.00
2022-08-28T13:54:54.294Z,5.90
2022-08-28T13:57:33.104Z,5.90
2022-08-28T14:00:04.054Z,6.20
2022-08-28T14:03:03.422Z,6.00
2022-08-28T14:05:48.093Z,5.37
2022-08-28T14:08:30.539Z,5.50
2022-08-28T14:11:13.586Z,5.37
2022-08-28T14:13:56.321Z,5.50
2022-08-28T14:16:27.151Z,4.80
2022-08-28T14:19:09.211Z,5.03
2022-08-28T14:21:53.011Z,4.67
2022-08-28T14:24:35.441Z,4.63
2022-08-28T14:27:07.634Z,4.60
2022-08-28T14:30:11.505Z,4.50
2022-08-28T14:32:55.795Z,4.73
2022-08-28T14:35:39.718Z,5.10
2022-08-28T14:38:23.362Z,4.87
2022-08-28T14:41:08.789Z,5.33
2022-08-28T14:43:51.341Z,5.07
2022-08-28T14:46:37.436Z,5.50
2022-08-28T14:49:12.138Z,5.00
2022-08-28T14:51:57.099Z,5.40
2022-08-28T14:54:28.666Z,4.97
2022-08-28T14:57:12.005Z,4.50
2022-08-28T14:59:56.958Z,4.60
2022-08-28T15:02:39.254Z,4.00
2022-08-28T15:05:22.370Z,3.77
2022-08-28T15:08:07.580Z,4.20
2022-08-28T15:10:52.253Z,3.93
2022-08-28T15:13:35.660Z,4.40
2022-08-28T15:16:30.131Z,4.00
2022-08-28T15:19:15.959Z,3.90
2022-08-28T15:21:42.520Z,4.13
2022-08-28T15:24:27.099Z,3.90
2022-08-28T15:27:11.685Z,3.93
2022-08-28T15:29:53.893Z,4.40
2022-08-28T15:32:36.293Z,4.20
2022-08-28T15:35:18.578Z,4.43
2022-08-28T15:38:01.138Z,4.47
2022-08-28T15:41:01.022Z,4.27
2022-08-28T15:43:47.944Z,4.27
2022-08-28T15:46:34.469Z,4.50
2022-08-28T15:49:17.186Z,4.23
2022-08-28T15:51:59.103Z,4.10
2022-08-28T15:54:41.433Z,4.27
2022-08-28T15:57:23.512Z,4.27
2022-08-28T16:00:10.362Z,4.17
2022-08-28T16:02:56.065Z,4.30
2022-08-28T16:05:39.634Z,4.00
2022-08-28T16:08:23.590Z,4.80
2022-08-28T16:11:09.073Z,4.00
2022-08-28T16:13:51.405Z,4.67
2022-08-28T16:16:35.785Z,4.70
2022-08-28T16:19:21.441Z,4.40
2022-08-28T16:22:03.465Z,4.27
2022-08-28T16:24:46.380Z,4.33
2022-08-28T16:27:29.013Z,4.53
2022-08-28T16:30:15.881Z,4.10
2022-08-28T16:33:00.282Z,3.93
2022-08-28T16:35:49.286Z,4.30
2022-08-28T16:38:32.205Z,4.60
2022-08-28T16:41:14.258Z,4.40
2022-08-28T16:43:57.478Z,4.30
2022-08-28T16:46:41.275Z,4.27
2022-08-28T16:49:26.792Z,4.50
2022-08-28T16:51:52.670Z,4.30
2022-08-28T16:54:19.655Z,4.10
2022-08-28T16:56:47.473Z,4.30
2022-08-28T16:59:34.062Z,4.13
2022-08-28T17:02:09.881Z,4.77
2022-08-28T17:05:00.393Z,4.37
2022-08-28T17:07:44.501Z,4.40
2022-08-28T17:10:28.203Z,4.50
2022-08-28T17:13:11.390Z,5.00
2022-08-28T17:15:38.429Z,4.80
2022-08-28T17:18:21.034Z,4.53
2022-08-28T17:21:02.517Z,4.60
2022-08-28T17:23:24.524Z,4.80
2022-08-28T17:25:46.108Z,4.77
2022-08-28T17:28:26.941Z,4.63
2022-08-28T17:31:09.301Z,4.80
2022-08-28T17:33:30.823Z,4.67
2022-08-28T17:36:02.917Z,5.07
2022-08-28T17:38:46.562Z,4.50
2022-08-28T17:41:28.877Z,5.27
2022-08-28T17:43:52.262Z,5.47
2022-08-28T17:46:17.766Z,5.50
2022-08-28T17:48:49.455Z,4.87
2022-08-28T17:51:19.043Z,4.83
2022-08-28T17:53:48.377Z,5.07
2022-08-28T17:56:35.841Z,4.93
2022-08-28T17:59:19.434Z,5.33
2022-08-28T18:02:02.555Z,5.40
2022-08-28T18:04:30.245Z,5.30
2022-08-28T18:07:03.384Z,5.70
2022-08-28T18:09:28.818Z,5.50
2022-08-28T18:11:54.887Z,5.13
2022-08-28T18:14:27.821Z,5.20
2022-08-28T18:17:13.340Z,5.77
2022-08-28T18:19:35.054Z,5.80
2022-08-28T18:21:58.312Z,6.03
2022-08-28T18:24:20.219Z,5.90
2022-08-28T18:26:42.910Z,6.40
2022-08-28T18:29:04.358Z,6.10
2022-08-28T18:31:26.616Z,5.93
2022-08-28T18:33:48.093Z,6.10
2022-08-28T18:36:11.507Z,6.60
2022-08-28T18:38:35.855Z,6.67
2022-08-28T18:40:58.961Z,6.67
2022-08-28T18:43:22.329Z,6.47
2022-08-28T18:45:43.826Z,6.03
2022-08-28T18:48:06.057Z,6.87
2022-08-28T18:50:28.642Z,6.50
2022-08-28T18:52:51.506Z,6.67
2022-08-28T18:55:14.896Z,6.80
2022-08-28T18:57:37.069Z,6.67
2022-08-28T18:59:59.190Z,7.07
2022-08-28T19:02:20.573Z,7.37
2022-08-28T19:04:42.673Z,6.43
2022-08-28T19:07:03.874Z,7.20
2022-08-28T19:09:31.615Z,7.27
2022-08-28T19:11:56.044Z,7.10
2022-08-28T19:14:17.839Z,7.13
2022-08-28T19:16:40.349Z,6.90
2022-08-28T19:19:02.092Z,6.83
2022-08-28T19:21:23.400Z,7.13
2022-08-28T19:23:56.113Z,7.67
2022-08-28T19:26:18.867Z,7.27
2022-08-28T19:28:41.623Z,7.47
2022-08-28T19:31:18.563Z,7.87
2022-08-28T19:33:40.319Z,7.80
2022-08-28T19:36:02.290Z,8.20
2022-08-28T19:38:23.554Z,7.33
2022-08-28T19:40:45.619Z,7.93
2022-08-28T19:43:07.693Z,7.43
2022-08-28T19:45:34.686Z,7.47
2022-08-28T19:47:57.110Z,8.23
2022-08-28T19:50:19.190Z,7.90
2022-08-28T19:52:40.890Z,8.17
2022-08-28T19:55:02.899Z,7.60
2022-08-28T19:57:24.310Z,8.50
2022-08-28T19:59:45.481Z,8.00
2022-08-28T20:02:08.825Z,8.80
2022-08-28T20:04:30.877Z,7.90
2022-08-28T20:06:52.733Z,7.77
2022-08-28T20:09:14.394Z,8.47
2022-08-28T20:11:35.861Z,8.03
2022-08-28T20:13:59.567Z,9.30
2022-08-28T20:16:21.521Z,9.30
2022-08-28T20:18:44.529Z,9.53
2022-08-28T20:21:06.991Z,9.83
2022-08-28T20:23:28.535Z,9.30
2022-08-28T20:25:51.443Z,8.57
2022-08-28T20:28:13.274Z,9.30
2022-08-28T20:30:34.969Z,8.83
2022-08-28T20:32:56.813Z,9.60
2022-08-28T20:35:22.131Z,9.80
2022-08-28T20:37:46.475Z,9.50
2022-08-28T20:40:09.926Z,9.17
2022-08-28T20:42:32.006Z,8.83
2022-08-28T20:45:09.216Z,8.57
2022-08-28T20:47:31.035Z,8.47
2022-08-28T20:49:52.745Z,8.40
2022-08-28T20:52:15.835Z,8.00
2022-08-28T20:54:41.674Z,9.20
2022-08-28T20:57:06.040Z,8.53
2022-08-28T20:59:39.215Z,8.63
2022-08-28T21:02:02.405Z,8.60
2022-08-28T21:04:24.811Z,8.40
2022-08-28T21:06:47.378Z,7.83
2022-08-28T21:09:10.237Z,8.47
2022-08-28T21:11:31.685Z,9.00
2022-08-28T21:13:53.474Z,8.60
2022-08-28T21:16:16.450Z,8.23
2022-08-28T21:18:45.505Z,8.37
2022-08-28T21:21:19.587Z,8.23
2022-08-28T21:23:43.721Z,8.60
2022-08-28T21:26:09.900Z,8.70
2022-08-28T21:28:31.281Z,8.70
2022-08-28T21:30:53.992Z,8.97
2022-08-28T21:33:15.677Z,7.73
2022-08-28T21:35:37.064Z,8.60
2022-08-28T21:37:58.763Z,8.53
2022-08-28T21:40:20.627Z,8.97
2022-08-28T21:42:44.113Z,8.63
2022-08-28T21:45:11.711Z,8.80
2022-08-28T21:47:33.816Z,9.33
2022-08-28T21:49:56.890Z,9.00
2022-08-28T21:52:18.820Z,9.40
2022-08-28T21:54:41.932Z,9.10
2022-08-28T21:57:03.626Z,9.00
2022-08-28T21:59:41.325Z,9.07
2022-08-28T22:02:03.304Z,8.90
2022-08-28T22:04:24.507Z,8.70
2022-08-28T22:06:45.912Z,8.90
2022-08-28T22:09:08.231Z,8.47
2022-08-28T22:11:30.987Z,9.37
2022-08-28T22:14:08.997Z,8.40
2022-08-28T22:16:34.227Z,9.43
2022-08-28T22:18:56.035Z,8.77
2022-08-28T22:21:37.770Z,9.37
2022-08-28T22:23:59.218Z,8.97
2022-08-28T22:26:21.911Z,8.90
2022-08-28T22:28:43.569Z,9.67
2022-08-28T22:31:05.869Z,9.40
2022-08-28T22:33:29.969Z,8.40
2022-08-28T22:35:51.989Z,9.03
2022-08-28T22:38:13.670Z,9.17
2022-08-28T22:40:35.624Z,9.77
2022-08-28T22:42:57.393Z,10.17
2022-08-28T22:45:18.767Z,9.93
2022-08-28T22:47:41.101Z,9.30
2022-08-28T22:50:05.162Z,9.13
2022-08-28T22:52:26.671Z,9.30
2022-08-28T22:54:52.301Z,9.17
2022-08-28T22:57:14.950Z,9.10
2022-08-28T22:59:36.453Z,8.23
2022-08-28T23:01:58.770Z,8.97
2022-08-28T23:04:20.617Z,8.77
2022-08-28T23:06:43.572Z,9.20
2022-08-28T23:09:05.245Z,8.80
2022-08-28T23:11:27.129Z,8.90
2022-08-28T23:13:48.909Z,9.50
2022-08-28T23:16:11.770Z,9.47
2022-08-28T23:18:51.951Z,8.43
2022-08-28T23:21:15.337Z,9.10
2022-08-28T23:23:58.070Z,9.07
2022-08-28T23:26:20.172Z,8.80
2022-08-28T23:28:42.349Z,9.40
2022-08-28T23:31:03.992Z,9.50
2022-08-28T23:33:25.725Z,9.47
2022-08-28T23:35:47.295Z,8.93
2022-08-28T23:38:09.279Z,9.07
2022-08-28T23:40:33.048Z,9.10
2022-08-28T23:42:55.672Z,9.83
2022-08-28T23:45:17.796Z,9.70
2022-08-28T23:48:00.076Z,9.43
2022-08-28T23:50:43.028Z,9.50
2022-08-28T23:53:05.150Z,9.20
2022-08-28T23:55:28.259Z,9.53
2022-08-28T23:58:11.672Z,9.40
